Time;durP1;ratioP1;P1;durP2;ratioP2;P2;SDS_P1;SDS_P2;PMS_P1;PMS_P2;Temp;Humidity;BMP_temperature;BMP_pressure;BME280_temperature;BME280_humidity;BME280_pressure;Samples;Min_cycle;Max_cycle;Signal;HPM_P1;HPM_P2
2022/02/14 00:01:45;;;;;;;0.40;0.20;;;6.30;88.40;;;;;;4990530;28;20394;-71
2022/02/14 00:04:10;;;;;;;0.70;0.70;;;6.40;87.20;;;;;;4991288;28;20399;-71
2022/02/14 00:06:36;;;;;;;0.40;0.20;;;6.40;87.70;;;;;;4991024;28;20810;-72
2022/02/14 00:09:02;;;;;;;0.40;0.20;;;6.40;87.30;;;;;;4991050;28;20387;-72
2022/02/14 00:11:28;;;;;;;0.40;0.20;;;6.40;89.10;;;;;;4991397;28;20414;-71
2022/02/14 00:13:54;;;;;;;0.40;0.30;;;6.20;89.30;;;;;;4972799;28;20410;-71
2022/02/14 00:16:20;;;;;;;0.40;0.20;;;6.20;90.00;;;;;;4991432;28;20390;-71
2022/02/14 00:18:45;;;;;;;0.40;0.20;;;6.20;90.30;;;;;;4990231;28;20389;-71
2022/02/14 00:21:11;;;;;;;0.40;0.30;;;6.20;90.00;;;;;;4991535;28;20472;-72
2022/02/14 00:23:37;;;;;;;0.40;0.20;;;6.20;90.10;;;;;;4991052;28;21065;-72
2022/02/14 00:26:03;;;;;;;0.40;0.20;;;6.00;90.90;;;;;;4990519;28;20487;-72
2022/02/14 00:28:29;;;;;;;0.40;0.20;;;6.00;90.60;;;;;;4973579;28;20425;-71
2022/02/14 00:30:55;;;;;;;0.40;0.20;;;6.00;91.10;;;;;;4990531;28;20386;-72
2022/02/14 00:33:20;;;;;;;0.40;0.30;;;6.00;90.50;;;;;;4991233;28;20425;-72
2022/02/14 00:35:47;;;;;;;0.40;0.23;;;6.10;90.60;;;;;;4990844;28;20444;-72
2022/02/14 00:38:14;;;;;;;0.40;0.20;;;6.00;90.70;;;;;;4990286;28;20695;-72
2022/02/14 00:40:40;;;;;;;0.40;0.20;;;6.00;90.90;;;;;;4990764;28;20400;-72
2022/02/14 00:43:05;;;;;;;0.40;0.30;;;5.90;90.90;;;;;;4990378;28;20394;-72
2022/02/14 00:45:32;;;;;;;2.70;0.60;;;5.90;91.20;;;;;;4994241;28;20436;-72
2022/02/14 00:47:57;;;;;;;0.40;0.30;;;5.80;91.20;;;;;;4979963;28;20386;-72
2022/02/14 00:50:24;;;;;;;0.40;0.20;;;5.80;91.70;;;;;;4996373;28;20386;-72
2022/02/14 00:52:49;;;;;;;0.40;0.20;;;5.70;91.90;;;;;;4997454;28;20472;-72
2022/02/14 00:55:16;;;;;;;0.40;0.20;;;5.70;92.30;;;;;;4996246;28;20477;-72
2022/02/14 00:57:43;;;;;;;0.40;0.20;;;5.60;92.70;;;;;;4996800;28;20408;-72
2022/02/14 01:00:11;;;;;;;0.40;0.30;;;5.60;93.00;;;;;;4979082;28;20400;-73
2022/02/14 01:02:37;;;;;;;0.40;0.20;;;5.50;92.70;;;;;;4997524;28;20386;-72
2022/02/14 01:05:04;;;;;;;0.60;0.60;;;5.50;93.60;;;;;;4997383;28;20379;-71
2022/02/14 01:07:30;;;;;;;0.40;0.20;;;5.50;93.10;;;;;;4995696;28;20401;-72
2022/02/14 01:09:56;;;;;;;0.40;0.20;;;5.60;92.90;;;;;;4996961;28;20402;-72
2022/02/14 01:12:21;;;;;;;0.40;0.20;;;5.60;93.20;;;;;;4996727;28;20783;-72
2022/02/14 01:14:47;;;;;;;0.40;0.20;;;5.50;93.40;;;;;;4997265;28;20402;-71
2022/02/14 01:17:13;;;;;;;0.40;0.30;;;5.50;93.40;;;;;;4997057;28;20899;-71
2022/02/14 01:19:39;;;;;;;1.20;0.60;;;5.40;94.00;;;;;;4996385;28;20509;-71
2022/02/14 01:22:05;;;;;;;0.40;0.20;;;5.40;93.80;;;;;;4997026;28;20493;-72
2022/02/14 01:24:31;;;;;;;0.40;0.20;;;5.50;93.50;;;;;;4996500;28;20394;-72
2022/02/14 01:26:56;;;;;;;0.40;0.20;;;5.40;93.80;;;;;;4997048;28;20390;-72
2022/02/14 01:29:22;;;;;;;0.40;0.20;;;5.50;93.60;;;;;;4997134;28;20386;-72
2022/02/14 01:31:48;;;;;;;0.40;0.20;;;5.40;93.90;;;;;;4996402;28;20501;-72
2022/02/14 01:34:14;;;;;;;0.40;0.20;;;5.40;94.30;;;;;;4996845;28;20414;-72
2022/02/14 01:36:40;;;;;;;0.40;0.40;;;5.30;94.40;;;;;;4996382;28;20390;-72
2022/02/14 01:39:06;;;;;;;0.40;0.30;;;5.30;94.80;;;;;;4997067;28;20398;-72
2022/02/14 01:41:32;;;;;;;0.40;0.20;;;5.20;94.90;;;;;;4979264;28;20387;-72
2022/02/14 01:43:57;;;;;;;0.40;0.20;;;5.20;95.50;;;;;;4996236;28;20587;-72
2022/02/14 01:46:23;;;;;;;0.40;0.27;;;5.20;95.90;;;;;;4996746;28;20452;-72
2022/02/14 01:48:49;;;;;;;0.40;0.20;;;5.20;96.00;;;;;;4978206;28;20397;-73
2022/02/14 01:51:16;;;;;;;0.40;0.20;;;5.20;95.50;;;;;;4997365;28;20397;-72
2022/02/14 01:53:42;;;;;;;0.40;0.30;;;5.20;95.30;;;;;;4996664;28;20891;-72
2022/02/14 01:56:10;;;;;;;0.40;0.40;;;5.20;95.70;;;;;;4995315;28;20469;-71
2022/02/14 01:58:36;;;;;;;0.40;0.20;;;5.00;95.80;;;;;;4993486;28;20387;-72
2022/02/14 02:01:02;;;;;;;0.40;0.28;;;5.10;95.90;;;;;;4993267;28;20436;-73
2022/02/14 02:03:27;;;;;;;0.50;0.50;;;5.00;95.90;;;;;;4993913;28;20399;-73
2022/02/14 02:05:55;;;;;;;0.40;0.20;;;5.00;96.50;;;;;;4993911;28;20395;-72
2022/02/14 02:08:21;;;;;;;0.40;0.20;;;5.00;96.80;;;;;;4975574;28;20437;-72
2022/02/14 02:10:47;;;;;;;0.40;0.22;;;5.00;96.60;;;;;;4976149;28;20911;-72
2022/02/14 02:13:16;;;;;;;0.40;0.20;;;5.10;96.40;;;;;;4992780;28;20480;-73
2022/02/14 02:15:42;;;;;;;0.40;0.30;;;5.10;97.10;;;;;;4993398;28;20452;-72
2022/02/14 02:18:08;;;;;;;0.40;0.20;;;5.20;95.90;;;;;;4992235;28;20434;-73
2022/02/14 02:20:35;;;;;;;0.40;0.20;;;5.10;96.30;;;;;;4993477;28;20413;-72
2022/02/14 02:23:01;;;;;;;0.40;0.20;;;5.10;96.70;;;;;;4975933;28;20442;-72
2022/02/14 02:25:27;;;;;;;0.40;0.20;;;5.10;96.70;;;;;;4992630;28;20452;-72
2022/02/14 02:27:53;;;;;;;0.40;0.20;;;5.10;96.90;;;;;;4993350;28;20474;-72
2022/02/14 02:30:22;;;;;;;0.40;0.20;;;5.00;97.00;;;;;;4992682;28;20386;-72
2022/02/14 02:32:49;;;;;;;0.40;0.20;;;5.20;96.30;;;;;;4993163;28;20411;-72
2022/02/14 02:35:15;;;;;;;0.70;0.70;;;5.20;95.60;;;;;;4993462;28;20391;-72
2022/02/14 02:37:41;;;;;;;1.00;0.70;;;5.20;95.90;;;;;;4992076;28;20871;-72
2022/02/14 02:40:08;;;;;;;0.40;0.30;;;5.30;96.00;;;;;;4992812;28;20394;-72
2022/02/14 02:42:34;;;;;;;0.40;0.20;;;5.30;95.40;;;;;;4992366;28;20772;-72
2022/02/14 02:45:00;;;;;;;0.40;0.20;;;5.30;96.10;;;;;;4992977;28;20407;-72
2022/02/14 02:47:27;;;;;;;0.40;0.20;;;5.50;94.50;;;;;;4992799;28;20393;-73
2022/02/14 02:49:53;;;;;;;0.40;0.22;;;5.60;94.60;;;;;;4992990;28;20481;-72
2022/02/14 02:52:20;;;;;;;1.20;0.80;;;5.50;94.70;;;;;;4993338;28;20399;-72
2022/02/14 02:54:47;;;;;;;0.40;0.20;;;5.60;94.20;;;;;;4992085;28;20728;-72
2022/02/14 02:57:13;;;;;;;0.40;0.20;;;5.60;94.20;;;;;;4992987;28;20808;-72
2022/02/14 02:59:41;;;;;;;0.40;0.40;;;5.60;94.30;;;;;;4991806;28;20387;-73
2022/02/14 03:02:07;;;;;;;0.40;0.20;;;5.60;94.20;;;;;;4992687;28;20383;-72
2022/02/14 03:04:33;;;;;;;0.40;0.30;;;5.50;94.40;;;;;;4992604;28;20391;-72
2022/02/14 03:07:00;;;;;;;0.40;0.20;;;5.40;94.90;;;;;;4991778;28;20559;-72
2022/02/14 03:09:26;;;;;;;0.80;0.80;;;5.80;93.70;;;;;;4991594;28;20429;-72
2022/02/14 03:11:51;;;;;;;0.40;0.25;;;5.80;93.30;;;;;;4991508;28;20399;-72
2022/02/14 03:14:17;;;;;;;0.40;0.20;;;5.80;93.20;;;;;;4992298;28;20505;-72
2022/02/14 03:16:43;;;;;;;0.40;0.20;;;5.80;93.40;;;;;;4992240;28;20413;-72
2022/02/14 03:19:10;;;;;;;0.40;0.20;;;5.70;93.50;;;;;;4991524;28;20995;-72
2022/02/14 03:21:36;;;;;;;0.40;0.20;;;5.70;93.60;;;;;;4992482;28;20409;-72
2022/02/14 03:24:03;;;;;;;0.40;0.40;;;5.60;94.20;;;;;;4991231;28;20403;-72
2022/02/14 03:26:29;;;;;;;0.40;0.20;;;5.50;94.60;;;;;;4992259;28;20390;-72
2022/02/14 03:28:56;;;;;;;0.40;0.20;;;5.50;94.50;;;;;;5006834;28;20395;-72
2022/02/14 03:31:23;;;;;;;0.40;0.40;;;5.40;94.60;;;;;;4991675;28;20481;-72
2022/02/14 03:33:49;;;;;;;0.40;0.30;;;5.40;94.80;;;;;;4991798;28;20418;-72
2022/02/14 03:36:18;;;;;;;0.40;0.20;;;5.30;95.10;;;;;;4991363;28;20386;-72
2022/02/14 03:38:45;;;;;;;0.40;0.20;;;5.30;95.30;;;;;;4992064;28;20418;-72
2022/02/14 03:41:12;;;;;;;0.40;0.40;;;5.40;95.40;;;;;;4973875;28;20786;-72
2022/02/14 03:43:38;;;;;;;0.40;0.20;;;5.30;95.40;;;;;;4974466;28;20402;-72
2022/02/14 03:46:04;;;;;;;0.40;0.20;;;5.20;95.70;;;;;;4991980;28;20437;-73
2022/02/14 03:48:29;;;;;;;0.40;0.20;;;5.30;95.90;;;;;;4991188;28;20393;-72
2022/02/14 03:50:55;;;;;;;0.68;0.68;;;5.20;95.90;;;;;;4991686;28;20399;-72
2022/02/14 03:53:21;;;;;;;0.40;0.30;;;5.10;96.30;;;;;;4973640;28;20886;-72
2022/02/14 03:55:47;;;;;;;0.40;0.30;;;5.10;96.90;;;;;;4974420;28;20398;-72
2022/02/14 03:58:13;;;;;;;0.50;0.40;;;5.00;97.10;;;;;;4991765;28;20725;-72
2022/02/14 04:00:39;;;;;;;0.40;0.20;;;5.00;97.60;;;;;;4990959;28;20659;-72
2022/02/14 04:03:05;;;;;;;0.40;0.20;;;5.00;97.00;;;;;;4958323;28;20498;-72
2022/02/14 04:05:31;;;;;;;0.40;0.30;;;4.90;97.20;;;;;;4990292;28;20386;-72
2022/02/14 04:07:58;;;;;;;0.40;0.20;;;5.00;97.20;;;;;;4991316;28;20390;-72
2022/02/14 04:10:25;;;;;;;0.40;0.20;;;4.90;97.80;;;;;;4973907;28;20875;-72
2022/02/14 04:12:52;;;;;;;0.40;0.30;;;4.90;97.60;;;;;;4990880;28;20413;-72
2022/02/14 04:15:18;;;;;;;0.40;0.20;;;4.90;97.80;;;;;;4991275;28;20456;-72
2022/02/14 04:17:44;;;;;;;0.40;0.20;;;4.90;98.10;;;;;;4990675;28;20398;-72
2022/02/14 04:20:10;;;;;;;0.40;0.20;;;5.00;97.50;;;;;;4990895;28;20399;-71
2022/02/14 04:22:37;;;;;;;0.40;0.20;;;4.90;98.20;;;;;;4991552;28;20390;-72
2022/02/14 04:25:07;;;;;;;0.40;0.20;;;5.00;97.80;;;;;;4973261;28;21010;-72
2022/02/14 04:27:33;;;;;;;0.40;0.20;;;5.00;97.50;;;;;;4990617;28;20410;-72
2022/02/14 04:29:59;;;;;;;0.40;0.20;;;5.00;97.70;;;;;;4990324;28;20378;-72
2022/02/14 04:32:25;;;;;;;0.40;0.20;;;4.90;98.60;;;;;;4991532;28;20386;-72
2022/02/14 04:34:50;;;;;;;0.40;0.20;;;5.10;97.70;;;;;;4990829;28;20441;-72
2022/02/14 04:37:16;;;;;;;0.40;0.20;;;5.10;97.50;;;;;;4991930;28;20382;-70
2022/02/14 04:39:42;;;;;;;0.40;0.20;;;5.10;97.50;;;;;;4991456;28;20828;-72
2022/02/14 04:42:08;;;;;;;0.40;0.20;;;5.20;97.30;;;;;;4990550;28;20449;-72
2022/02/14 04:44:34;;;;;;;0.40;0.20;;;5.20;96.80;;;;;;4991570;28;20379;-72
2022/02/14 04:47:00;;;;;;;0.40;0.20;;;5.20;97.70;;;;;;4990574;28;20390;-73
2022/02/14 04:49:26;;;;;;;0.40;0.20;;;5.20;97.10;;;;;;4991298;28;20490;-72
2022/02/14 04:51:51;;;;;;;0.40;0.20;;;5.20;97.50;;;;;;4991195;28;20474;-72
2022/02/14 04:54:17;;;;;;;11.10;0.70;;;5.30;96.80;;;;;;4973304;28;20513;-72
2022/02/14 04:56:42;;;;;;;0.40;0.20;;;5.30;96.90;;;;;;4991356;28;20856;-72
2022/02/14 04:59:09;;;;;;;0.40;0.20;;;5.40;97.00;;;;;;4973139;28;20417;-73
2022/02/14 05:01:35;;;;;;;1.10;0.80;;;5.40;96.90;;;;;;4991258;28;20394;-72
2022/02/14 05:04:01;;;;;;;0.40;0.20;;;5.40;96.80;;;;;;4991252;28;20487;-72
2022/02/14 05:06:26;;;;;;;0.40;0.20;;;5.40;97.10;;;;;;4990203;28;20387;-72
2022/02/14 05:08:52;;;;;;;0.40;0.20;;;5.40;97.00;;;;;;4991376;28;20382;-72
2022/02/14 05:11:18;;;;;;;0.50;0.40;;;5.40;97.20;;;;;;4990330;28;20418;-72
2022/02/14 05:13:45;;;;;;;0.40;0.20;;;5.50;97.10;;;;;;4991152;28;20410;-72
2022/02/14 05:16:11;;;;;;;0.50;0.50;;;5.40;96.80;;;;;;4973896;28;20500;-72
2022/02/14 05:18:37;;;;;;;0.40;0.20;;;5.50;96.70;;;;;;4989773;28;20394;-72
2022/02/14 05:21:03;;;;;;;0.40;0.20;;;5.60;96.70;;;;;;4990928;28;20875;-72
2022/02/14 05:23:29;;;;;;;0.40;0.20;;;5.50;97.10;;;;;;4990042;28;20449;-72
2022/02/14 05:25:55;;;;;;;0.40;0.20;;;5.50;97.50;;;;;;4991406;28;20391;-72
2022/02/14 05:28:20;;;;;;;0.40;0.20;;;5.50;97.30;;;;;;4990949;28;20390;-72
2022/02/14 05:30:47;;;;;;;0.40;0.20;;;5.60;97.30;;;;;;4990122;28;20387;-72
2022/02/14 05:33:13;;;;;;;0.40;0.20;;;5.50;97.30;;;;;;4994216;28;20449;-72
2022/02/14 05:35:39;;;;;;;0.40;0.30;;;5.40;97.50;;;;;;4993790;28;20391;-72
2022/02/14 05:38:07;;;;;;;0.50;0.50;;;5.60;97.30;;;;;;4994430;28;20729;-72
2022/02/14 05:40:32;;;;;;;0.57;0.57;;;5.60;97.90;;;;;;4994140;28;20391;-72
2022/02/14 05:42:58;;;;;;;0.40;0.20;;;5.70;97.50;;;;;;4976716;28;20401;-72
2022/02/14 05:45:24;;;;;;;0.40;0.20;;;5.60;97.20;;;;;;4994732;28;20383;-72
2022/02/14 05:47:49;;;;;;;0.40;0.20;;;5.70;97.70;;;;;;4993428;28;20425;-72
2022/02/14 05:50:15;;;;;;;0.40;0.20;;;5.60;97.80;;;;;;4994274;28;20452;-72
2022/02/14 05:52:41;;;;;;;0.40;0.20;;;5.60;98.00;;;;;;4994149;28;20484;-73
2022/02/14 05:55:07;;;;;;;0.40;0.20;;;5.60;97.90;;;;;;4994139;28;20398;-72
2022/02/14 05:57:34;;;;;;;0.40;0.20;;;5.70;97.90;;;;;;4993605;28;20394;-72
2022/02/14 05:59:59;;;;;;;0.40;0.20;;;5.80;97.60;;;;;;4993425;28;20386;-73
2022/02/14 06:02:25;;;;;;;0.40;0.20;;;5.70;98.30;;;;;;4994071;28;20449;-72
2022/02/14 06:04:51;;;;;;;0.40;0.20;;;5.60;98.60;;;;;;4993773;28;20422;-72
2022/02/14 06:07:17;;;;;;;0.50;0.40;;;5.60;98.70;;;;;;4994484;28;20378;-72
2022/02/14 06:09:42;;;;;;;0.40;0.20;;;5.60;99.00;;;;;;4993594;28;20403;-72
2022/02/14 06:12:08;;;;;;;0.40;0.20;;;5.50;99.20;;;;;;4993238;28;20462;-72
2022/02/14 06:14:34;;;;;;;0.40;0.30;;;5.50;99.50;;;;;;4976416;28;20414;-72
2022/02/14 06:17:00;;;;;;;0.40;0.20;;;5.50;99.40;;;;;;4975505;28;20751;-73
2022/02/14 06:19:26;;;;;;;4.07;0.83;;;5.50;99.90;;;;;;4993550;28;20775;-71
2022/02/14 06:21:51;;;;;;;0.40;0.20;;;5.50;99.90;;;;;;4993626;28;20866;-71
2022/02/14 06:24:18;;;;;;;0.40;0.20;;;5.50;99.90;;;;;;4992834;28;20467;-71
2022/02/14 06:26:44;;;;;;;0.40;0.20;;;5.50;99.90;;;;;;4976177;28;20421;-71
2022/02/14 06:29:10;;;;;;;0.40;0.20;;;5.60;99.90;;;;;;4992970;28;20405;-71
2022/02/14 06:31:36;;;;;;;0.50;0.40;;;5.70;99.80;;;;;;4993273;28;20477;-71
2022/02/14 06:34:01;;;;;;;0.40;0.20;;;5.80;99.80;;;;;;4993534;28;20434;-71
2022/02/14 06:36:27;;;;;;;0.40;0.20;;;5.90;99.70;;;;;;4992739;28;20417;-72
2022/02/14 06:38:54;;;;;;;1.10;1.00;;;5.90;99.70;;;;;;4993548;28;20397;-71
2022/02/14 06:41:20;;;;;;;0.40;0.20;;;5.90;99.80;;;;;;4992573;28;20436;-72
2022/02/14 06:43:46;;;;;;;2.40;1.20;;;5.90;99.90;;;;;;4975824;28;20729;-71
2022/02/14 06:46:12;;;;;;;0.40;0.20;;;6.10;99.50;;;;;;4975352;28;20397;-71
2022/02/14 06:48:38;;;;;;;0.40;0.20;;;6.00;99.90;;;;;;4992794;28;20387;-71
2022/02/14 06:51:04;;;;;;;0.40;0.20;;;6.00;99.60;;;;;;4975585;28;20456;-71
2022/02/14 06:53:30;;;;;;;1.00;1.00;;;6.00;99.90;;;;;;4991956;28;20483;-71
2022/02/14 06:55:56;;;;;;;0.40;0.20;;;6.10;99.90;;;;;;4992779;28;20397;-72
2022/02/14 06:58:22;;;;;;;0.40;0.20;;;6.10;99.90;;;;;;4993463;28;20391;-72
2022/02/14 07:00:48;;;;;;;0.40;0.20;;;6.00;99.90;;;;;;4958695;28;20891;-72
2022/02/14 07:03:13;;;;;;;0.40;0.20;;;6.30;99.90;;;;;;4993064;28;20393;-72
2022/02/14 07:05:41;;;;;;;0.40;0.20;;;6.20;99.90;;;;;;4991810;28;20390;-71
2022/02/14 07:08:07;;;;;;;0.40;0.20;;;6.20;99.90;;;;;;4975488;28;20447;-71
2022/02/14 07:10:33;;;;;;;0.40;0.20;;;6.30;99.90;;;;;;4992619;28;20416;-71
2022/02/14 07:13:00;;;;;;;0.40;0.40;;;6.30;99.90;;;;;;4992014;28;20509;-71
2022/02/14 07:15:26;;;;;;;0.40;0.20;;;6.50;99.30;;;;;;4992757;28;20394;-71
2022/02/14 07:17:52;;;;;;;0.40;0.20;;;6.50;99.40;;;;;;4991720;28;20917;-71
2022/02/14 07:20:19;;;;;;;0.40;0.20;;;6.50;99.40;;;;;;4992767;28;20465;-71
2022/02/14 07:22:45;;;;;;;0.40;0.38;;;6.80;99.70;;;;;;4992113;28;20412;-72
2022/02/14 07:25:11;;;;;;;0.40;0.20;;;6.50;98.90;;;;;;4992968;28;20394;-72
2022/02/14 07:27:38;;;;;;;0.40;0.20;;;6.50;99.90;;;;;;4992572;28;20410;-71
2022/02/14 07:30:06;;;;;;;0.40;0.20;;;6.50;99.90;;;;;;4991481;28;20386;-72
2022/02/14 07:32:32;;;;;;;0.40;0.20;;;6.50;99.90;;;;;;4986711;28;20483;-72
2022/02/14 07:34:58;;;;;;;0.90;0.90;;;6.50;99.90;;;;;;4986333;28;20521;-72
2022/02/14 07:37:24;;;;;;;0.40;0.20;;;6.50;99.90;;;;;;4973107;28;20416;-72
2022/02/14 07:39:50;;;;;;;0.40;0.20;;;6.50;99.90;;;;;;4957321;28;20454;-73
2022/02/14 07:42:16;;;;;;;0.40;0.20;;;6.60;99.90;;;;;;4984093;28;20398;-72
2022/02/14 07:44:42;;;;;;;0.40;0.20;;;6.60;99.90;;;;;;4990231;28;20950;-72
2022/02/14 07:47:07;;;;;;;3.00;0.60;;;6.70;99.90;;;;;;4968508;28;20922;-72
2022/02/14 07:49:33;;;;;;;0.40;0.20;;;6.70;99.90;;;;;;4991238;28;20409;-72
2022/02/14 07:51:59;;;;;;;0.40;0.20;;;6.70;99.90;;;;;;4974376;28;20403;-71
2022/02/14 07:54:25;;;;;;;0.40;0.20;;;6.60;99.90;;;;;;4990914;28;20422;-70
2022/02/14 07:56:51;;;;;;;0.40;0.30;;;6.60;99.90;;;;;;4991711;28;20480;-71
2022/02/14 07:59:16;;;;;;;0.40;0.28;;;6.70;99.90;;;;;;4973311;28;20405;-71
2022/02/14 08:01:42;;;;;;;0.70;0.60;;;6.60;99.90;;;;;;4992043;28;20390;-71
2022/02/14 08:04:08;;;;;;;0.47;0.47;;;6.60;99.90;;;;;;4991066;28;20392;-71
2022/02/14 08:06:35;;;;;;;0.40;0.20;;;6.60;99.90;;;;;;4991041;28;20473;-71
2022/02/14 08:09:01;;;;;;;0.40;0.20;;;6.70;99.90;;;;;;4973725;28;20406;-71
2022/02/14 08:11:27;;;;;;;0.40;0.28;;;6.80;99.90;;;;;;4979198;28;20404;-71
2022/02/14 08:13:53;;;;;;;0.40;0.20;;;6.70;99.90;;;;;;4965242;28;20752;-71
2022/02/14 08:16:19;;;;;;;0.40;0.20;;;6.70;99.90;;;;;;4981539;28;20387;-72
2022/02/14 08:18:45;;;;;;;0.40;0.40;;;6.80;99.90;;;;;;4991079;28;20434;-71
2022/02/14 08:21:11;;;;;;;0.40;0.20;;;6.90;99.90;;;;;;4991271;28;20410;-71
2022/02/14 08:23:37;;;;;;;0.50;0.50;;;6.90;99.90;;;;;;4979304;28;20459;-70
2022/02/14 08:26:02;;;;;;;0.40;0.20;;;7.00;99.90;;;;;;4962261;28;20392;-70
2022/02/14 08:28:28;;;;;;;0.40;0.20;;;7.00;99.90;;;;;;4989146;28;20461;-70
2022/02/14 08:30:54;;;;;;;0.40;0.20;;;7.10;99.90;;;;;;4991204;28;20482;-70
2022/02/14 08:33:20;;;;;;;0.40;0.20;;;7.20;99.90;;;;;;4987936;28;20410;-70
2022/02/14 08:35:46;;;;;;;2.30;0.90;;;7.20;99.90;;;;;;4989080;28;20406;-70
2022/02/14 08:38:12;;;;;;;0.40;0.20;;;7.30;99.90;;;;;;4980499;28;20440;-70
2022/02/14 08:40:39;;;;;;;0.40;0.30;;;7.50;99.90;;;;;;4989733;28;20395;-71
2022/02/14 08:43:05;;;;;;;0.40;0.20;;;7.60;99.90;;;;;;4991071;28;20420;-71
2022/02/14 08:45:32;;;;;;;0.40;0.40;;;7.80;99.90;;;;;;4989564;28;20394;-72
2022/02/14 08:47:59;;;;;;;0.40;0.20;;;8.00;99.90;;;;;;4988237;28;20390;-71
2022/02/14 08:50:25;;;;;;;0.40;0.20;;;8.20;99.90;;;;;;4983135;28;20395;-70
2022/02/14 08:52:51;;;;;;;0.40;0.20;;;8.20;99.90;;;;;;4984063;28;20587;-71
2022/02/14 08:55:17;;;;;;;0.40;0.20;;;8.30;99.90;;;;;;4980217;28;20902;-72
2022/02/14 08:57:44;;;;;;;0.40;0.20;;;8.30;99.90;;;;;;4979987;28;20392;-72
2022/02/14 09:00:11;;;;;;;0.40;0.20;;;8.30;99.90;;;;;;4990746;28;20383;-72
2022/02/14 09:02:37;;;;;;;0.50;0.50;;;8.40;99.90;;;;;;4984820;28;20410;-71
2022/02/14 09:05:03;;;;;;;0.40;0.20;;;8.40;99.90;;;;;;4985188;28;20571;-71
2022/02/14 09:07:29;;;;;;;0.40;0.20;;;8.40;99.90;;;;;;4987609;28;20564;-71
2022/02/14 09:09:57;;;;;;;0.98;0.95;;;8.50;99.90;;;;;;4974799;28;20978;-71
2022/02/14 09:12:23;;;;;;;0.40;0.30;;;8.50;99.90;;;;;;4993781;28;20374;-71
2022/02/14 09:14:50;;;;;;;0.40;0.20;;;8.60;99.90;;;;;;4967050;28;20820;-72
2022/02/14 09:17:16;;;;;;;0.40;0.40;;;8.50;99.90;;;;;;4988981;28;20397;-72
2022/02/14 09:19:42;;;;;;;0.40;0.20;;;8.50;99.90;;;;;;4987698;28;20390;-71
2022/02/14 09:22:09;;;;;;;0.70;0.70;;;8.50;99.90;;;;;;4993553;28;20985;-72
2022/02/14 09:24:36;;;;;;;0.40;0.20;;;8.70;99.90;;;;;;4994694;28;20386;-71
2022/02/14 09:27:03;;;;;;;0.40;0.20;;;9.50;99.90;;;;;;4994019;28;20394;-71
2022/02/14 09:29:30;;;;;;;0.40;0.20;;;10.20;97.60;;;;;;4976990;28;20391;-72
2022/02/14 09:31:57;;;;;;;0.40;0.20;;;10.90;95.00;;;;;;4992296;28;20383;-73
2022/02/14 09:34:23;;;;;;;0.40;0.20;;;11.20;94.70;;;;;;4992205;28;20507;-72
2022/02/14 09:36:53;;;;;;;0.50;0.40;;;11.50;93.70;;;;;;4976956;28;20469;-72
2022/02/14 09:39:20;;;;;;;0.40;0.20;;;11.50;93.10;;;;;;4993356;28;20467;-72
2022/02/14 09:41:46;;;;;;;0.40;0.20;;;11.60;93.20;;;;;;4994134;28;20423;-71
2022/02/14 09:44:13;;;;;;;0.40;0.20;;;11.60;93.50;;;;;;4993392;28;20498;-71
2022/02/14 09:46:40;;;;;;;0.40;0.20;;;11.70;93.50;;;;;;4976694;28;20472;-71
2022/02/14 09:49:07;;;;;;;0.40;0.20;;;11.90;93.30;;;;;;4993296;28;20387;-72
2022/02/14 09:51:35;;;;;;;0.40;0.20;;;12.00;92.90;;;;;;4992370;28;20540;-72
2022/02/14 09:54:02;;;;;;;0.60;0.50;;;12.00;93.00;;;;;;4993800;28;20410;-72
2022/02/14 09:56:32;;;;;;;0.40;0.20;;;12.00;92.80;;;;;;4993083;28;20393;-71
2022/02/14 09:58:59;;;;;;;0.40;0.20;;;12.00;92.70;;;;;;4993907;28;20812;-71
2022/02/14 10:01:27;;;;;;;0.40;0.20;;;12.00;92.70;;;;;;4990309;28;20383;-72
2022/02/14 10:03:55;;;;;;;0.40;0.20;;;12.10;92.60;;;;;;4993699;28;20396;-72
2022/02/14 10:06:32;;;;;;;0.60;0.60;;;12.10;92.50;;;;;;4975833;28;20786;-73
2022/02/14 10:09:19;;;;;;;0.40;0.20;;;12.30;92.60;;;;;;4993728;28;20394;-72
2022/02/14 10:12:07;;;;;;;0.40;0.20;;;12.20;92.30;;;;;;4988709;28;20425;-72
2022/02/14 10:14:34;;;;;;;0.40;0.20;;;12.30;92.60;;;;;;4974723;28;20497;-71
2022/02/14 10:17:18;;;;;;;0.40;0.20;;;12.40;92.30;;;;;;4993525;28;20390;-72
2022/02/14 10:20:00;;;;;;;0.40;0.20;;;12.40;92.10;;;;;;4993061;28;20438;-72
2022/02/14 10:22:27;;;;;;;0.60;0.50;;;12.40;92.30;;;;;;4972755;28;20930;-71
2022/02/14 10:24:53;;;;;;;0.40;0.20;;;12.30;92.30;;;;;;4993742;28;20390;-72
2022/02/14 10:27:31;;;;;;;0.40;0.20;;;12.30;92.40;;;;;;4992893;28;20445;-70
2022/02/14 10:30:07;;;;;;;0.40;0.20;;;12.30;92.40;;;;;;4992515;28;20387;-72
2022/02/14 10:32:33;;;;;;;0.40;0.20;;;12.30;92.30;;;;;;4988612;28;20426;-71
2022/02/14 10:35:00;;;;;;;0.40;0.20;;;12.30;92.40;;;;;;4993130;28;20789;-70
2022/02/14 10:37:43;;;;;;;0.40;0.20;;;12.30;92.30;;;;;;4990720;28;20394;-70
2022/02/14 10:40:24;;;;;;;0.40;0.20;;;12.30;92.40;;;;;;4993038;28;20478;-70
2022/02/14 10:42:50;;;;;;;0.40;0.20;;;12.30;93.00;;;;;;4990287;28;20445;-71
2022/02/14 10:45:16;;;;;;;0.40;0.20;;;12.30;92.60;;;;;;4975511;28;20445;-71
2022/02/14 10:47:46;;;;;;;0.40;0.20;;;12.20;92.70;;;;;;4992134;28;20537;-72
2022/02/14 10:50:14;;;;;;;0.40;0.20;;;12.30;92.90;;;;;;4992877;28;20394;-72
2022/02/14 10:52:45;;;;;;;0.40;0.20;;;12.20;92.70;;;;;;4973494;28;20418;-72
2022/02/14 10:55:19;;;;;;;0.40;0.20;;;12.30;92.90;;;;;;4992845;28;20489;-72
2022/02/14 10:57:47;;;;;;;0.40;0.20;;;12.20;92.90;;;;;;4986931;28;20383;-72
2022/02/14 11:00:18;;;;;;;0.40;0.20;;;12.30;93.00;;;;;;4987240;28;20387;-72
2022/02/14 11:02:46;;;;;;;0.40;0.20;;;12.40;92.70;;;;;;4964301;28;20454;-73
2022/02/14 11:05:14;;;;;;;0.40;0.20;;;12.50;92.30;;;;;;4959911;28;20396;-73
2022/02/14 11:07:41;;;;;;;0.40;0.20;;;12.40;92.60;;;;;;4956233;28;20889;-73
2022/02/14 11:10:10;;;;;;;0.40;0.20;;;12.40;92.60;;;;;;4951803;29;20569;-72
2022/02/14 11:12:46;;;;;;;0.40;0.20;;;12.40;92.80;;;;;;4954367;28;20433;-72
2022/02/14 11:15:12;;;;;;;0.40;0.20;;;12.30;93.20;;;;;;4953116;28;20424;-73
2022/02/14 11:17:43;;;;;;;0.40;0.20;;;12.20;93.40;;;;;;4969432;28;20388;-73
2022/02/14 11:20:10;;;;;;;0.40;0.20;;;12.20;93.50;;;;;;4971412;28;20784;-73
2022/02/14 11:22:39;;;;;;;0.40;0.20;;;12.20;93.80;;;;;;4971325;28;20420;-73
2022/02/14 11:25:12;;;;;;;0.40;0.20;;;12.20;93.90;;;;;;4964568;28;20404;-73
2022/02/14 11:27:53;;;;;;;0.40;0.20;;;12.10;93.90;;;;;;4958951;28;20400;-73
2022/02/14 11:30:19;;;;;;;0.40;0.30;;;12.00;94.30;;;;;;4959994;28;20397;-73
2022/02/14 11:33:09;;;;;;;0.40;0.20;;;12.00;94.50;;;;;;4970867;28;20388;-74
2022/02/14 11:35:35;;;;;;;0.40;0.20;;;12.00;94.50;;;;;;4964274;28;20404;-72
2022/02/14 11:38:01;;;;;;;0.40;0.20;;;12.00;94.70;;;;;;4970676;28;20392;-73
2022/02/14 11:40:39;;;;;;;0.40;0.20;;;11.90;95.10;;;;;;4969896;28;20458;-72
2022/02/14 11:43:22;;;;;;;0.40;0.20;;;12.00;95.50;;;;;;4972532;28;20403;-73
2022/02/14 11:46:15;;;;;;;0.40;0.30;;;11.80;96.00;;;;;;4972690;28;20408;-73
2022/02/14 11:48:41;;;;;;;0.40;0.20;;;11.80;96.30;;;;;;4972690;28;20440;-72
2022/02/14 11:51:17;;;;;;;0.40;0.20;;;11.70;96.60;;;;;;4969945;28;20416;-71
2022/02/14 11:53:47;;;;;;;0.40;0.20;;;11.90;96.90;;;;;;4971327;28;20427;-72
2022/02/14 11:56:22;;;;;;;0.40;0.30;;;11.50;98.80;;;;;;4971916;28;20403;-72
2022/02/14 11:59:18;;;;;;;3.00;0.80;;;11.20;99.90;;;;;;4972587;28;20400;-72
2022/02/14 12:01:49;;;;;;;0.40;0.20;;;11.10;99.90;;;;;;4972367;28;20393;-72
2022/02/14 12:07:23;;;;;;;0.40;0.30;;;11.00;99.90;;;;;;4972391;28;20839;-72
2022/02/14 12:09:59;;;;;;;0.40;0.20;;;11.20;99.90;;;;;;4973255;28;20395;-72
2022/02/14 12:12:43;;;;;;;0.40;0.20;;;11.10;99.90;;;;;;4989782;28;20444;-72
2022/02/14 12:20:34;;;;;;;0.40;0.20;;;11.20;99.90;;;;;;4989862;28;20443;-72
2022/02/14 12:21:00;;;;;;;0.90;0.90;;;11.30;99.90;;;;;;4986912;28;20449;-71
2022/02/14 12:23:35;;;;;;;0.40;0.20;;;11.20;99.90;;;;;;4991028;28;20493;-71
2022/02/14 12:26:02;;;;;;;0.40;0.30;;;11.30;99.90;;;;;;4980117;28;20404;-71
2022/02/14 12:28:28;;;;;;;0.40;0.20;;;11.20;99.90;;;;;;4988464;28;20419;-71
2022/02/14 12:30:56;;;;;;;0.40;0.20;;;11.40;99.90;;;;;;4973357;28;20421;-71
2022/02/14 12:33:22;;;;;;;0.40;0.20;;;11.40;99.90;;;;;;4990844;28;20468;-71
2022/02/14 12:35:49;;;;;;;0.40;0.20;;;11.30;99.90;;;;;;4965408;28;20399;-71
2022/02/14 12:38:15;;;;;;;0.40;0.20;;;11.20;99.90;;;;;;4990991;28;20473;-71
2022/02/14 12:40:53;;;;;;;0.40;0.28;;;11.00;99.90;;;;;;4989765;28;20395;-71
2022/02/14 12:43:25;;;;;;;0.40;0.20;;;11.10;99.90;;;;;;4988242;28;20399;-72
2022/02/14 12:45:53;;;;;;;0.40;0.20;;;11.20;99.90;;;;;;4990057;28;20386;-72
2022/02/14 12:48:26;;;;;;;0.40;0.20;;;11.00;99.90;;;;;;4973678;28;20383;-72
2022/02/14 12:50:53;;;;;;;0.40;0.20;;;10.90;99.90;;;;;;4987567;28;20467;-72
2022/02/14 12:53:18;;;;;;;0.40;0.20;;;10.80;99.90;;;;;;4972433;28;20965;-72
2022/02/14 12:55:44;;;;;;;0.40;0.20;;;10.80;99.90;;;;;;4987486;28;20434;-71
2022/02/14 12:58:12;;;;;;;0.40;0.30;;;10.60;99.90;;;;;;4990662;28;20387;-71
2022/02/14 13:00:42;;;;;;;0.40;0.20;;;10.50;99.90;;;;;;4990783;28;20748;-73
2022/02/14 13:03:15;;;;;;;0.40;0.20;;;10.30;99.90;;;;;;4990224;28;20425;-71